createdAt,value
2018-09-17T00:01:30.391Z,100870.09
2018-09-17T00:03:58.830Z,100860.73
2018-09-17T00:06:27.648Z,100857.97
2018-09-17T00:08:56.652Z,100861.88
2018-09-17T00:11:25.446Z,100859.70
2018-09-17T00:13:54.237Z,100858.83
2018-09-17T00:16:23.023Z,100860.12
2018-09-17T00:18:51.765Z,100862.75
2018-09-17T00:21:20.471Z,100858.02
2018-09-17T00:23:49.414Z,100854.73
2018-09-17T00:26:18.565Z,100848.30
2018-09-17T00:28:47.194Z,100848.73
2018-09-17T00:31:15.963Z,100859.90
2018-09-17T00:33:44.444Z,100865.94
2018-09-17T00:36:13.180Z,100865.10
2018-09-17T00:38:41.795Z,100865.16
2018-09-17T00:41:10.597Z,100865.25
2018-09-17T00:43:39.081Z,100863.95
2018-09-17T00:46:07.670Z,100863.42
2018-09-17T00:48:36.045Z,100860.48
2018-09-17T00:51:04.719Z,100868.73
2018-09-17T00:53:33.171Z,100866.58
2018-09-17T00:56:01.923Z,100865.44
2018-09-17T00:58:30.402Z,100861.80
2018-09-17T01:00:58.939Z,100860.98
2018-09-17T01:03:27.488Z,100863.58
2018-09-17T01:05:55.924Z,100865.38
2018-09-17T01:08:24.377Z,100862.48
2018-09-17T01:10:53.197Z,100858.66
2018-09-17T01:13:21.975Z,100853.63
2018-09-17T01:15:50.840Z,100857.16
2018-09-17T01:18:19.258Z,100862.04
2018-09-17T01:20:48.896Z,100866.44
2018-09-17T01:23:17.357Z,100869.02
2018-09-17T01:25:46.147Z,100865.62
2018-09-17T01:28:14.951Z,100869.50
2018-09-17T01:30:43.418Z,100863.87
2018-09-17T01:33:11.978Z,100867.45
2018-09-17T01:35:41.389Z,100865.40
2018-09-17T01:38:09.859Z,100862.09
2018-09-17T01:40:38.586Z,100862.13
2018-09-17T01:43:07.666Z,100862.06
2018-09-17T01:45:36.439Z,100865.98
2018-09-17T01:48:04.973Z,100865.17
2018-09-17T01:50:33.525Z,100862.77
2018-09-17T01:53:02.022Z,100862.30
2018-09-17T01:55:30.496Z,100866.53
2018-09-17T01:57:59.096Z,100868.75
2018-09-17T02:00:27.545Z,100865.46
2018-09-17T02:02:56.148Z,100869.76
2018-09-17T02:05:24.537Z,100865.44
2018-09-17T02:07:53.196Z,100867.66
2018-09-17T02:10:22.223Z,100870.13
2018-09-17T02:12:50.630Z,100872.74
2018-09-17T02:15:19.369Z,100870.23
2018-09-17T02:17:48.340Z,100865.95
2018-09-17T02:20:17.160Z,100863.10
2018-09-17T02:22:45.641Z,100869.52
2018-09-17T02:25:14.080Z,100864.31
2018-09-17T02:27:42.516Z,100862.27
2018-09-17T02:30:10.976Z,100865.70
2018-09-17T02:32:39.359Z,100867.49
2018-09-17T02:35:07.790Z,100853.02
2018-09-17T02:37:36.277Z,100855.53
2018-09-17T02:40:07.935Z,100850.93
2018-09-17T02:42:37.247Z,100843.09
2018-09-17T02:45:06.064Z,100845.17
2018-09-17T02:47:34.616Z,100851.58
2018-09-17T02:50:03.404Z,100846.55
2018-09-17T02:52:32.398Z,100847.03
2018-09-17T02:55:00.935Z,100850.97
2018-09-17T02:57:29.664Z,100852.70
2018-09-17T02:59:58.275Z,100846.28
2018-09-17T03:02:26.738Z,100852.27
2018-09-17T03:04:55.287Z,100847.20
2018-09-17T03:07:23.789Z,100854.91
2018-09-17T03:09:52.275Z,100854.53
2018-09-17T03:12:20.594Z,100862.64
2018-09-17T03:14:49.223Z,100861.78
2018-09-17T03:17:18.999Z,100857.05
2018-09-17T03:19:48.578Z,100854.02
2018-09-17T03:22:17.136Z,100853.63
2018-09-17T03:24:45.808Z,100858.76
2018-09-17T03:27:14.291Z,100861.70
2018-09-17T03:29:42.836Z,100861.72
2018-09-17T03:32:11.300Z,100856.27
2018-09-17T03:34:39.740Z,100857.22
2018-09-17T03:37:08.221Z,100855.66
2018-09-17T03:39:36.747Z,100848.95
2018-09-17T03:42:05.414Z,100853.66
2018-09-17T03:44:33.859Z,100850.25
2018-09-17T03:47:02.352Z,100853.61
2018-09-17T03:49:31.239Z,100857.02
2018-09-17T03:51:59.653Z,100857.46
2018-09-17T03:54:28.138Z,100858.66
2018-09-17T03:56:56.643Z,100858.23
2018-09-17T03:59:25.028Z,100856.55
2018-09-17T04:01:53.747Z,100858.70
2018-09-17T04:04:22.355Z,100858.77
2018-09-17T04:06:50.874Z,100856.58
2018-09-17T04:09:19.325Z,100861.31
2018-09-17T04:11:47.875Z,100856.59
2018-09-17T04:14:16.464Z,100860.87
2018-09-17T04:16:45.014Z,100852.28
2018-09-17T04:19:13.440Z,100853.99
2018-09-17T04:21:41.929Z,100855.73
2018-09-17T04:24:10.503Z,100854.44
2018-09-17T04:26:39.013Z,100861.64
2018-09-17T04:29:10.767Z,100857.84
2018-09-17T04:31:39.266Z,100851.44
2018-09-17T04:34:07.765Z,100858.30
2018-09-17T04:36:36.376Z,100859.98
2018-09-17T04:39:06.830Z,100862.18
2018-09-17T04:41:35.296Z,100858.03
2018-09-17T04:44:03.788Z,100851.22
2018-09-17T04:46:32.168Z,100849.95
2018-09-17T04:49:00.756Z,100847.41
2018-09-17T04:51:29.310Z,100840.59
2018-09-17T04:53:57.953Z,100840.59
2018-09-17T04:56:26.430Z,100836.78
2018-09-17T04:58:55.480Z,100834.59
2018-09-17T05:01:24.149Z,100835.96
2018-09-17T05:03:52.638Z,100834.22
2018-09-17T05:06:21.190Z,100830.73
2018-09-17T05:08:49.746Z,100830.37
2018-09-17T05:11:18.416Z,100826.87
2018-09-17T05:13:47.019Z,100827.19
2018-09-17T05:16:15.689Z,100830.55
2018-09-17T05:18:44.201Z,100845.03
2018-09-17T05:21:12.844Z,100841.88
2018-09-17T05:23:42.278Z,100849.04
2018-09-17T05:26:10.782Z,100849.77
2018-09-17T05:28:39.337Z,100851.77
2018-09-17T05:31:07.877Z,100855.98
2018-09-17T05:33:36.463Z,100864.41
2018-09-17T05:36:04.963Z,100865.14
2018-09-17T05:38:35.491Z,100861.18
2018-09-17T05:41:04.594Z,100857.69
2018-09-17T05:43:33.240Z,100856.66
2018-09-17T05:46:02.540Z,100854.37
2018-09-17T05:48:31.042Z,100857.61
2018-09-17T05:50:59.653Z,100856.60
2018-09-17T05:53:28.368Z,100854.60
2018-09-17T05:55:57.131Z,100854.88
2018-09-17T05:58:25.805Z,100852.09
2018-09-17T06:00:54.689Z,100851.39
2018-09-17T06:03:23.384Z,100855.37
2018-09-17T06:05:52.078Z,100850.34
2018-09-17T06:08:20.613Z,100853.08
2018-09-17T06:10:49.266Z,100851.08
2018-09-17T06:13:17.779Z,100858.98
2018-09-17T06:15:46.264Z,100859.65
2018-09-17T06:18:16.325Z,100865.36
2018-09-17T06:20:44.832Z,100863.80
2018-09-17T06:23:13.441Z,100868.19
2018-09-17T06:25:41.944Z,100873.80
2018-09-17T06:28:10.470Z,100884.39
2018-09-17T06:30:39.009Z,100886.68
2018-09-17T06:33:07.504Z,100890.77
2018-09-17T06:35:35.974Z,100896.85
2018-09-17T06:38:04.327Z,100904.70
2018-09-17T06:40:33.195Z,100907.22
2018-09-17T06:43:01.708Z,100908.92
2018-09-17T06:45:30.227Z,100913.11
2018-09-17T06:47:59.428Z,100912.38
2018-09-17T06:50:27.906Z,100914.25
2018-09-17T06:52:56.386Z,100915.25
2018-09-17T06:55:24.894Z,100912.83
2018-09-17T06:57:53.352Z,100906.50
2018-09-17T07:00:21.840Z,100904.28
2018-09-17T07:02:50.393Z,100901.52
2018-09-17T07:05:18.963Z,100904.08
2018-09-17T07:07:47.575Z,100906.83
2018-09-17T07:10:16.091Z,100910.73
2018-09-17T07:12:44.553Z,100921.44
2018-09-17T07:15:13.057Z,100922.56
2018-09-17T07:17:41.678Z,100934.44
2018-09-17T07:20:10.176Z,100935.30
2018-09-17T07:22:38.655Z,100948.44
2018-09-17T07:25:08.001Z,100942.15
2018-09-17T07:27:36.692Z,100945.34
2018-09-17T07:30:05.396Z,100951.95
2018-09-17T07:32:33.994Z,100952.32
2018-09-17T07:35:02.473Z,100957.57
2018-09-17T07:37:31.059Z,100950.00
2018-09-17T07:39:59.470Z,100957.50
2018-09-17T07:42:27.987Z,100950.03
2018-09-17T07:44:56.535Z,100949.11
2018-09-17T07:47:25.139Z,100949.27
2018-09-17T07:49:53.658Z,100953.64
2018-09-17T07:52:22.206Z,100944.86
2018-09-17T07:54:51.479Z,100937.48
2018-09-17T07:57:20.143Z,100951.98
2018-09-17T07:59:48.868Z,100958.43
2018-09-17T08:02:17.453Z,100960.02
2018-09-17T08:04:46.011Z,100959.94
2018-09-17T08:07:14.503Z,100961.28
2018-09-17T08:09:43.034Z,100960.28
2018-09-17T08:12:11.659Z,100955.54
2018-09-17T08:14:40.163Z,100960.93
2018-09-17T08:17:08.648Z,100963.37
2018-09-17T08:19:37.847Z,100966.22
2018-09-17T08:22:06.334Z,100960.86
2018-09-17T08:24:35.067Z,100952.43
2018-09-17T08:27:03.564Z,100952.00
2018-09-17T08:29:32.003Z,100951.70
2018-09-17T08:32:00.490Z,100956.04
2018-09-17T08:34:29.057Z,100946.88
2018-09-17T08:36:57.532Z,100950.62
2018-09-17T08:39:26.004Z,100945.58
2018-09-17T08:41:54.503Z,100945.03
2018-09-17T08:44:23.051Z,100943.47
2018-09-17T08:46:51.449Z,100941.69
2018-09-17T08:49:19.980Z,100938.14
2018-09-17T08:51:48.550Z,100935.39
2018-09-17T08:54:17.059Z,100931.73
2018-09-17T08:56:49.793Z,100930.11
2018-09-17T08:59:23.732Z,100934.92
2018-09-17T09:01:57.795Z,100928.95
2018-09-17T09:04:31.432Z,100932.06
2018-09-17T09:07:05.815Z,100933.11
2018-09-17T09:09:34.245Z,100934.76
2018-09-17T09:12:08.043Z,100941.48
2018-09-17T09:14:39.172Z,100939.06
2018-09-17T09:17:08.760Z,100934.88
2018-09-17T09:19:37.255Z,100930.57
2018-09-17T09:22:05.625Z,100929.16
2018-09-17T09:24:34.011Z,100925.33
2018-09-17T09:27:03.328Z,100920.16
2018-09-17T09:29:31.783Z,100920.98
2018-09-17T09:32:00.272Z,100915.77
2018-09-17T09:34:28.729Z,100917.91
2018-09-17T09:36:57.207Z,100917.27
2018-09-17T09:39:25.689Z,100910.55
2018-09-17T09:41:54.126Z,100910.57
2018-09-17T09:44:22.603Z,100911.78
2018-09-17T09:46:51.117Z,100906.75
2018-09-17T09:49:19.596Z,100902.94
2018-09-17T09:51:48.120Z,100904.87
2018-09-17T09:54:16.704Z,100907.95
2018-09-17T09:56:45.235Z,100908.89
2018-09-17T09:59:13.684Z,100902.30
2018-09-17T10:01:47.384Z,100899.48
2018-09-17T10:04:22.768Z,100894.17
2018-09-17T10:06:52.267Z,100899.28
2018-09-17T10:09:26.074Z,100906.39
2018-09-17T10:11:59.854Z,100905.38
2018-09-17T10:14:33.613Z,100897.30
2018-09-17T10:17:07.810Z,100900.30
2018-09-17T10:19:40.526Z,100901.90
2018-09-17T10:22:09.124Z,100905.47
2018-09-17T10:24:37.717Z,100900.59
2018-09-17T10:27:06.210Z,100897.53
2018-09-17T10:29:34.699Z,100904.07
2018-09-17T10:32:03.239Z,100896.06
2018-09-17T10:34:31.698Z,100888.05
2018-09-17T10:37:00.312Z,100879.23
2018-09-17T10:39:28.868Z,100878.71
2018-09-17T10:41:57.448Z,100876.84
2018-09-17T10:44:25.992Z,100883.94
2018-09-17T10:46:54.495Z,100879.16
2018-09-17T10:49:22.973Z,100874.05
2018-09-17T10:51:51.595Z,100873.75
2018-09-17T10:54:20.144Z,100873.89
2018-09-17T10:56:48.675Z,100874.17
2018-09-17T10:59:17.252Z,100874.97
2018-09-17T11:01:45.717Z,100868.48
2018-09-17T11:04:14.326Z,100867.35
2018-09-17T11:06:42.910Z,100863.70
2018-09-17T11:09:12.822Z,100858.53
2018-09-17T11:11:41.755Z,100858.89
2018-09-17T11:14:10.901Z,100855.70
2018-09-17T11:16:39.589Z,100848.75
2018-09-17T11:19:08.477Z,100844.20
2018-09-17T11:21:37.284Z,100847.49
2018-09-17T11:24:05.753Z,100843.95
2018-09-17T11:26:34.532Z,100839.74
2018-09-17T11:29:03.089Z,100844.41
2018-09-17T11:31:31.840Z,100840.00
2018-09-17T11:34:00.415Z,100840.05
2018-09-17T11:36:28.982Z,100831.08
2018-09-17T11:38:58.194Z,100827.37
2018-09-17T11:41:26.616Z,100818.30
2018-09-17T11:43:55.152Z,100823.06
2018-09-17T11:46:23.663Z,100823.98
2018-09-17T11:48:52.185Z,100830.59
2018-09-17T11:51:20.649Z,100816.81
2018-09-17T11:53:49.120Z,100817.54
2018-09-17T11:56:17.605Z,100816.48
2018-09-17T11:58:46.101Z,100816.04
2018-09-17T12:03:25.503Z,100816.33
2018-09-17T12:06:01.187Z,100813.55
2018-09-17T12:08:29.822Z,100809.63
2018-09-17T12:10:58.647Z,100821.00
2018-09-17T12:13:27.375Z,100811.64
2018-09-17T12:15:56.039Z,100815.97
2018-09-17T12:18:24.967Z,100807.31
2018-09-17T12:20:55.290Z,100810.61
2018-09-17T12:23:24.203Z,100806.63
2018-09-17T12:25:52.890Z,100809.45
2018-09-17T12:28:22.569Z,100803.89
2018-09-17T12:30:51.855Z,100802.83
2018-09-17T12:33:20.438Z,100798.22
2018-09-17T12:35:49.974Z,100797.06
2018-09-17T12:38:18.865Z,100792.22
2018-09-17T12:40:47.495Z,100786.16
2018-09-17T12:43:16.200Z,100783.83
2018-09-17T12:45:45.723Z,100785.57
2018-09-17T12:48:14.593Z,100780.72
2018-09-17T12:50:49.910Z,100778.70
2018-09-17T12:53:19.411Z,100769.47
2018-09-17T12:55:48.164Z,100767.88
2018-09-17T12:58:17.114Z,100775.53
2018-09-17T13:00:47.171Z,100773.60
2018-09-17T13:03:16.067Z,100770.84
2018-09-17T13:05:44.868Z,100762.84
2018-09-17T13:08:13.717Z,100763.94
2018-09-17T13:10:42.443Z,100765.98
2018-09-17T13:13:11.494Z,100760.02
2018-09-17T13:15:45.466Z,100761.42
2018-09-17T13:18:14.084Z,100761.12
2018-09-17T13:20:42.767Z,100760.16
2018-09-17T13:23:11.548Z,100763.17
2018-09-17T13:25:40.302Z,100757.00
2018-09-17T13:28:09.191Z,100762.34
2018-09-17T13:30:37.883Z,100754.86
2018-09-17T13:33:06.617Z,100754.69
2018-09-17T13:35:35.483Z,100752.48
2018-09-17T13:38:04.140Z,100756.17
2018-09-17T13:40:32.829Z,100753.30
2018-09-17T13:43:01.324Z,100752.13
2018-09-17T13:45:30.112Z,100747.95
2018-09-17T13:47:59.424Z,100741.78
2018-09-17T13:50:28.350Z,100739.88
2018-09-17T13:52:59.688Z,100741.30
2018-09-17T13:55:28.400Z,100741.88
2018-09-17T13:57:57.090Z,100734.53
2018-09-17T14:00:26.583Z,100736.05
2018-09-17T14:02:55.296Z,100732.13
2018-09-17T14:05:24.593Z,100731.42
2018-09-17T14:07:53.320Z,100724.39
2018-09-17T14:10:22.331Z,100723.99
2018-09-17T14:12:51.004Z,100715.86
2018-09-17T14:15:19.828Z,100718.61
2018-09-17T14:17:49.064Z,100725.30
2018-09-17T14:20:17.857Z,100721.61
2018-09-17T14:22:46.629Z,100719.20
2018-09-17T14:25:15.460Z,100721.84
2018-09-17T14:27:45.211Z,100715.80
2018-09-17T14:30:14.215Z,100717.70
2018-09-17T14:32:48.134Z,100714.25
2018-09-17T14:35:17.387Z,100711.28
2018-09-17T14:37:46.291Z,100711.52
2018-09-17T14:40:15.215Z,100702.47
2018-09-17T14:42:44.113Z,100702.70
2018-09-17T14:45:12.920Z,100701.98
2018-09-17T14:47:41.692Z,100694.92
2018-09-17T14:50:10.241Z,100688.72
2018-09-17T14:52:39.151Z,100691.23
2018-09-17T14:55:08.070Z,100680.87
2018-09-17T14:57:36.928Z,100680.31
2018-09-17T15:00:05.687Z,100679.70
2018-09-17T15:02:34.406Z,100678.13
2018-09-17T15:05:03.320Z,100675.25
2018-09-17T15:07:31.845Z,100671.81
2018-09-17T15:10:00.727Z,100674.78
2018-09-17T15:12:29.317Z,100674.19
2018-09-17T15:14:58.299Z,100669.06
2018-09-17T15:17:27.003Z,100672.75
2018-09-17T15:19:57.658Z,100669.06
2018-09-17T15:22:26.390Z,100668.61
2018-09-17T15:24:55.101Z,100664.91
2018-09-17T15:27:23.834Z,100664.56
2018-09-17T15:29:52.569Z,100661.66
2018-09-17T15:32:21.263Z,100653.33
2018-09-17T15:34:49.806Z,100650.00
2018-09-17T15:37:18.640Z,100651.06
2018-09-17T15:39:47.320Z,100651.91
2018-09-17T15:42:16.103Z,100652.27
2018-09-17T15:44:44.948Z,100650.47
2018-09-17T15:47:13.468Z,100650.80
2018-09-17T15:49:42.311Z,100656.05
2018-09-17T15:52:12.429Z,100652.11
2018-09-17T15:54:41.454Z,100653.02
2018-09-17T15:57:22.376Z,100653.13
2018-09-17T15:59:54.554Z,100650.51
2018-09-17T16:02:23.463Z,100648.51
2018-09-17T16:04:52.356Z,100646.82
2018-09-17T16:07:20.871Z,100643.97
2018-09-17T16:09:49.496Z,100648.00
2018-09-17T16:12:18.425Z,100647.52
2018-09-17T16:14:47.865Z,100652.24
2018-09-17T16:17:16.951Z,100647.45
2018-09-17T16:19:46.652Z,100646.05
2018-09-17T16:22:15.428Z,100641.50
2018-09-17T16:24:45.760Z,100641.70
2018-09-17T16:27:14.696Z,100635.36
2018-09-17T16:29:44.057Z,100635.02
2018-09-17T16:32:13.824Z,100634.59
2018-09-17T16:34:44.499Z,100635.31
2018-09-17T16:37:13.479Z,100633.96
2018-09-17T16:39:42.204Z,100636.12
2018-09-17T16:42:10.970Z,100636.20
2018-09-17T16:44:39.971Z,100637.36
2018-09-17T16:47:09.464Z,100635.86
2018-09-17T16:49:40.292Z,100637.16
2018-09-17T16:52:09.195Z,100631.95
2018-09-17T16:54:41.113Z,100640.57
2018-09-17T16:57:10.551Z,100642.05
2018-09-17T16:59:39.315Z,100642.76
2018-09-17T17:02:08.204Z,100645.03
2018-09-17T17:04:36.907Z,100642.45
2018-09-17T17:07:06.618Z,100641.77
2018-09-17T17:09:35.722Z,100642.19
2018-09-17T17:12:04.539Z,100642.08
2018-09-17T17:14:33.614Z,100640.66
2018-09-17T17:17:02.520Z,100640.52
2018-09-17T17:19:31.764Z,100637.75
2018-09-17T17:22:00.683Z,100636.48
2018-09-17T17:24:29.770Z,100641.19
2018-09-17T17:26:58.943Z,100639.45
2018-09-17T17:29:27.950Z,100646.66
2018-09-17T17:31:57.565Z,100650.31
2018-09-17T17:34:26.398Z,100643.64
2018-09-17T17:36:55.868Z,100640.05
2018-09-17T17:39:24.734Z,100650.44
2018-09-17T17:41:53.626Z,100647.66
2018-09-17T17:44:23.215Z,100646.36
2018-09-17T17:46:52.411Z,100649.89
2018-09-17T17:49:21.085Z,100651.03
2018-09-17T17:51:49.753Z,100655.28
2018-09-17T17:54:18.790Z,100660.22
2018-09-17T17:56:47.586Z,100660.86
2018-09-17T17:59:18.622Z,100659.33
2018-09-17T18:01:47.347Z,100662.64
2018-09-17T18:04:15.910Z,100658.53
2018-09-17T18:06:45.599Z,100664.09
2018-09-17T18:09:14.469Z,100662.11
2018-09-17T18:11:44.079Z,100666.47
2018-09-17T18:14:13.293Z,100658.80
2018-09-17T18:16:43.114Z,100658.02
2018-09-17T18:19:11.817Z,100653.52
2018-09-17T18:21:40.811Z,100649.52
2018-09-17T18:24:09.332Z,100650.33
2018-09-17T18:26:37.827Z,100653.78
2018-09-17T18:29:07.140Z,100652.81
2018-09-17T18:31:35.906Z,100655.34
2018-09-17T18:34:04.911Z,100654.41
2018-09-17T18:36:33.455Z,100648.78
2018-09-17T18:39:02.234Z,100647.13
2018-09-17T18:41:30.868Z,100633.66
2018-09-17T18:43:59.555Z,100642.45
2018-09-17T18:46:28.239Z,100643.14
2018-09-17T18:48:57.396Z,100639.52
2018-09-17T18:51:26.614Z,100640.59
2018-09-17T18:53:55.473Z,100643.58
2018-09-17T18:56:24.841Z,100647.47
2018-09-17T18:58:54.244Z,100647.48
2018-09-17T19:01:23.143Z,100642.30
2018-09-17T19:03:52.574Z,100645.34
2018-09-17T19:06:22.517Z,100639.16
2018-09-17T19:08:52.697Z,100641.33
2018-09-17T19:11:21.321Z,100638.80
2018-09-17T19:13:55.266Z,100638.70
2018-09-17T19:16:29.289Z,100632.38
2018-09-17T19:18:57.924Z,100631.55
2018-09-17T19:21:30.747Z,100634.28
2018-09-17T19:24:04.527Z,100636.97
2018-09-17T19:26:33.132Z,100636.27
2018-09-17T19:29:06.868Z,100631.31
2018-09-17T19:31:39.613Z,100632.97
2018-09-17T19:34:08.555Z,100632.50
2018-09-17T19:36:37.918Z,100630.44
2018-09-17T19:39:13.513Z,100631.02
2018-09-17T19:41:42.371Z,100633.84
2018-09-17T19:44:10.989Z,100638.38
2018-09-17T19:46:40.064Z,100638.52
2018-09-17T19:49:09.192Z,100632.34
2018-09-17T19:51:43.883Z,100641.76
2018-09-17T19:54:13.346Z,100636.09
2018-09-17T19:56:42.818Z,100635.62
2018-09-17T19:59:17.242Z,100630.26
2018-09-17T20:01:46.516Z,100630.78
2018-09-17T20:06:23.754Z,100633.28
2018-09-17T20:08:53.126Z,100626.30
2018-09-17T20:11:22.626Z,100622.59
2018-09-17T20:13:52.134Z,100625.17
2018-09-17T20:16:20.962Z,100621.81
2018-09-17T20:18:50.199Z,100619.61
2018-09-17T20:21:18.723Z,100619.09
2018-09-17T20:23:47.288Z,100622.12
2018-09-17T20:26:15.995Z,100623.30
2018-09-17T20:28:44.690Z,100620.66
2018-09-17T20:31:13.300Z,100623.25
2018-09-17T20:33:42.462Z,100619.48
2018-09-17T20:36:11.811Z,100622.27
2018-09-17T20:38:40.349Z,100615.74
2018-09-17T20:41:10.454Z,100613.94
2018-09-17T20:43:41.105Z,100612.78
2018-09-17T20:46:09.844Z,100615.89
2018-09-17T20:48:38.567Z,100612.58
2018-09-17T20:51:07.623Z,100615.48
2018-09-17T20:53:36.952Z,100617.44
2018-09-17T20:56:06.054Z,100616.39
2018-09-17T20:58:34.737Z,100612.75
2018-09-17T21:01:03.456Z,100609.66
2018-09-17T21:03:32.111Z,100608.70
2018-09-17T21:06:00.783Z,100607.79
2018-09-17T21:08:29.429Z,100607.84
2018-09-17T21:10:58.297Z,100608.44
2018-09-17T21:13:27.042Z,100604.87
2018-09-17T21:15:55.545Z,100604.60
2018-09-17T21:18:24.469Z,100600.34
2018-09-17T21:20:53.102Z,100604.06
2018-09-17T21:23:22.470Z,100600.45
2018-09-17T21:25:51.042Z,100598.27
2018-09-17T21:28:19.514Z,100597.95
2018-09-17T21:30:48.667Z,100599.30
2018-09-17T21:33:17.563Z,100596.72
2018-09-17T21:35:47.324Z,100599.81
2018-09-17T21:38:15.804Z,100595.16
2018-09-17T21:40:44.386Z,100596.55
2018-09-17T21:43:12.985Z,100591.62
2018-09-17T21:45:41.751Z,100589.66
2018-09-17T21:48:11.293Z,100590.41
2018-09-17T21:50:39.936Z,100586.42
2018-09-17T21:53:08.861Z,100577.11
2018-09-17T21:55:37.551Z,100583.16
2018-09-17T21:58:06.236Z,100581.04
2018-09-17T22:01:11.526Z,100576.84
2018-09-17T22:03:40.687Z,100577.41
2018-09-17T22:06:09.873Z,100581.79
2018-09-17T22:08:38.526Z,100580.69
2018-09-17T22:11:07.441Z,100569.80
2018-09-17T22:13:36.052Z,100567.35
2018-09-17T22:16:04.766Z,100564.27
2018-09-17T22:18:33.461Z,100566.70
2018-09-17T22:21:02.048Z,100560.39
2018-09-17T22:23:30.565Z,100569.06
2018-09-17T22:25:59.232Z,100567.44
2018-09-17T22:28:27.625Z,100572.70
2018-09-17T22:30:57.595Z,100572.89
2018-09-17T22:33:26.163Z,100560.20
2018-09-17T22:35:55.311Z,100560.81
2018-09-17T22:38:23.784Z,100553.83
2018-09-17T22:40:52.536Z,100556.00
2018-09-17T22:43:21.117Z,100556.41
2018-09-17T22:45:50.621Z,100551.80
2018-09-17T22:48:19.705Z,100555.22
2018-09-17T22:50:48.209Z,100549.27
2018-09-17T22:55:59.597Z,100542.16
2018-09-17T22:58:28.386Z,100548.62
2018-09-17T23:00:57.003Z,100547.32
2018-09-17T23:03:25.536Z,100537.22
2018-09-17T23:05:54.313Z,100544.18
2018-09-17T23:08:22.818Z,100538.79
2018-09-17T23:10:51.911Z,100545.57
2018-09-17T23:13:20.471Z,100540.76
2018-09-17T23:15:49.974Z,100541.02
2018-09-17T23:18:18.481Z,100535.72
2018-09-17T23:20:46.990Z,100539.88
2018-09-17T23:23:15.768Z,100537.80
2018-09-17T23:25:44.954Z,100533.70
2018-09-17T23:28:14.066Z,100534.34
2018-09-17T23:30:43.571Z,100539.33
2018-09-17T23:33:12.877Z,100541.17
2018-09-17T23:35:41.548Z,100540.55
2018-09-17T23:38:10.001Z,100544.25
2018-09-17T23:40:39.117Z,100542.08
2018-09-17T23:43:09.058Z,100538.30
2018-09-17T23:45:38.197Z,100537.56
2018-09-17T23:48:07.008Z,100535.91
2018-09-17T23:50:36.130Z,100541.45
2018-09-17T23:53:04.751Z,100539.88
2018-09-17T23:55:33.396Z,100533.55
2018-09-17T23:58:01.988Z,100534.89
